sensor_id;sensor_type;location;lat;lon;timestamp;P1;durP1;ratioP1;P2;durP2;ratioP2
66087;SDS011;52872;52.994;6.940;2023-05-10T00:00:24;18.40;;;15.15;;
66087;SDS011;52872;52.994;6.940;2023-05-10T00:02:52;16.98;;;15.18;;
66087;SDS011;52872;52.994;6.940;2023-05-10T00:05:19;18.88;;;15.63;;
66087;SDS011;52872;52.994;6.940;2023-05-10T00:07:46;17.10;;;15.10;;
66087;SDS011;52872;52.994;6.940;2023-05-10T00:10:13;17.52;;;15.02;;
66087;SDS011;52872;52.994;6.940;2023-05-10T00:12:40;16.67;;;14.82;;
66087;SDS011;52872;52.994;6.940;2023-05-10T00:15:09;10.68;;;9.65;;
66087;SDS011;52872;52.994;6.940;2023-05-10T00:17:36;9.23;;;8.30;;
66087;SDS011;52872;52.994;6.940;2023-05-10T00:20:04;8.65;;;7.80;;
66087;SDS011;52872;52.994;6.940;2023-05-10T00:22:32;6.80;;;6.20;;
66087;SDS011;52872;52.994;6.940;2023-05-10T00:24:59;7.15;;;6.55;;
66087;SDS011;52872;52.994;6.940;2023-05-10T00:27:29;7.70;;;7.00;;
66087;SDS011;52872;52.994;6.940;2023-05-10T00:29:56;6.63;;;6.13;;
66087;SDS011;52872;52.994;6.940;2023-05-10T00:32:23;6.45;;;5.82;;
66087;SDS011;52872;52.994;6.940;2023-05-10T00:34:50;7.05;;;6.45;;
66087;SDS011;52872;52.994;6.940;2023-05-10T00:37:17;6.95;;;6.22;;
66087;SDS011;52872;52.994;6.940;2023-05-10T00:39:44;6.55;;;6.00;;
66087;SDS011;52872;52.994;6.940;2023-05-10T00:42:11;6.57;;;6.07;;
66087;SDS011;52872;52.994;6.940;2023-05-10T00:44:38;7.10;;;6.50;;
66087;SDS011;52872;52.994;6.940;2023-05-10T00:47:05;7.72;;;7.07;;
66087;SDS011;52872;52.994;6.940;2023-05-10T00:49:32;8.07;;;7.32;;
66087;SDS011;52872;52.994;6.940;2023-05-10T00:52:02;8.57;;;7.65;;
66087;SDS011;52872;52.994;6.940;2023-05-10T00:54:29;8.38;;;7.47;;
66087;SDS011;52872;52.994;6.940;2023-05-10T00:56:56;9.38;;;8.52;;
66087;SDS011;52872;52.994;6.940;2023-05-10T00:59:23;11.35;;;9.05;;
66087;SDS011;52872;52.994;6.940;2023-05-10T01:01:51;10.18;;;9.13;;
66087;SDS011;52872;52.994;6.940;2023-05-10T01:04:19;10.02;;;8.98;;
66087;SDS011;52872;52.994;6.940;2023-05-10T01:06:51;9.75;;;8.48;;
66087;SDS011;52872;52.994;6.940;2023-05-10T01:09:20;10.35;;;9.35;;
66087;SDS011;52872;52.994;6.940;2023-05-10T01:11:48;9.10;;;8.30;;
66087;SDS011;52872;52.994;6.940;2023-05-10T01:14:16;9.90;;;8.90;;
66087;SDS011;52872;52.994;6.940;2023-05-10T01:16:46;10.50;;;9.40;;
66087;SDS011;52872;52.994;6.940;2023-05-10T01:19:24;10.02;;;9.02;;
66087;SDS011;52872;52.994;6.940;2023-05-10T01:30:18;9.80;;;8.77;;
66087;SDS011;52872;52.994;6.940;2023-05-10T01:33:11;9.90;;;9.00;;
66087;SDS011;52872;52.994;6.940;2023-05-10T01:35:55;10.68;;;9.65;;
66087;SDS011;52872;52.994;6.940;2023-05-10T01:46:38;11.10;;;9.77;;
66087;SDS011;52872;52.994;6.940;2023-05-10T01:49:11;11.88;;;10.70;;
66087;SDS011;52872;52.994;6.940;2023-05-10T01:51:46;10.57;;;9.57;;
66087;SDS011;52872;52.994;6.940;2023-05-10T01:54:19;10.63;;;9.63;;
66087;SDS011;52872;52.994;6.940;2023-05-10T01:56:48;11.43;;;9.98;;
66087;SDS011;52872;52.994;6.940;2023-05-10T01:59:21;12.02;;;10.82;;
66087;SDS011;52872;52.994;6.940;2023-05-10T02:01:53;10.55;;;9.45;;
66087;SDS011;52872;52.994;6.940;2023-05-10T02:04:23;11.88;;;10.13;;
66087;SDS011;52872;52.994;6.940;2023-05-10T02:06:52;12.32;;;10.63;;
66087;SDS011;52872;52.994;6.940;2023-05-10T02:09:20;12.88;;;11.05;;
66087;SDS011;52872;52.994;6.940;2023-05-10T02:11:49;11.02;;;9.88;;
66087;SDS011;52872;52.994;6.940;2023-05-10T02:14:17;10.93;;;9.82;;
66087;SDS011;52872;52.994;6.940;2023-05-10T02:16:46;12.10;;;10.23;;
66087;SDS011;52872;52.994;6.940;2023-05-10T02:19:14;11.60;;;9.90;;
66087;SDS011;52872;52.994;6.940;2023-05-10T02:21:42;11.30;;;10.20;;
66087;SDS011;52872;52.994;6.940;2023-05-10T02:24:11;9.93;;;8.93;;
66087;SDS011;52872;52.994;6.940;2023-05-10T02:26:38;9.45;;;8.55;;
66087;SDS011;52872;52.994;6.940;2023-05-10T02:29:06;10.40;;;9.30;;
66087;SDS011;52872;52.994;6.940;2023-05-10T02:31:36;11.45;;;9.60;;
66087;SDS011;52872;52.994;6.940;2023-05-10T02:34:05;10.70;;;9.55;;
66087;SDS011;52872;52.994;6.940;2023-05-10T02:36:34;10.32;;;9.23;;
66087;SDS011;52872;52.994;6.940;2023-05-10T02:39:03;10.38;;;8.80;;
66087;SDS011;52872;52.994;6.940;2023-05-10T02:41:35;11.55;;;9.50;;
66087;SDS011;52872;52.994;6.940;2023-05-10T02:44:04;10.50;;;9.40;;
66087;SDS011;52872;52.994;6.940;2023-05-10T02:46:34;10.55;;;9.30;;
66087;SDS011;52872;52.994;6.940;2023-05-10T02:49:03;10.20;;;8.90;;
66087;SDS011;52872;52.994;6.940;2023-05-10T02:51:31;11.60;;;8.93;;
66087;SDS011;52872;52.994;6.940;2023-05-10T02:54:03;10.52;;;9.13;;
66087;SDS011;52872;52.994;6.940;2023-05-10T02:56:36;11.90;;;8.95;;
66087;SDS011;52872;52.994;6.940;2023-05-10T02:59:13;9.35;;;8.18;;
66087;SDS011;52872;52.994;6.940;2023-05-10T03:01:40;11.38;;;9.50;;
66087;SDS011;52872;52.994;6.940;2023-05-10T03:04:07;11.00;;;9.45;;
66087;SDS011;52872;52.994;6.940;2023-05-10T03:06:34;11.35;;;9.85;;
66087;SDS011;52872;52.994;6.940;2023-05-10T03:09:02;10.30;;;8.75;;
66087;SDS011;52872;52.994;6.940;2023-05-10T03:16:57;13.32;;;9.82;;
66087;SDS011;52872;52.994;6.940;2023-05-10T03:19:40;11.70;;;9.15;;
66087;SDS011;52872;52.994;6.940;2023-05-10T03:22:14;10.80;;;9.05;;
66087;SDS011;52872;52.994;6.940;2023-05-10T03:24:53;11.38;;;9.07;;
66087;SDS011;52872;52.994;6.940;2023-05-10T03:27:25;11.70;;;9.70;;
66087;SDS011;52872;52.994;6.940;2023-05-10T03:29:54;11.98;;;9.52;;
66087;SDS011;52872;52.994;6.940;2023-05-10T03:32:22;9.85;;;8.65;;
66087;SDS011;52872;52.994;6.940;2023-05-10T03:34:50;12.20;;;9.93;;
66087;SDS011;52872;52.994;6.940;2023-05-10T03:37:17;11.88;;;9.13;;
66087;SDS011;52872;52.994;6.940;2023-05-10T03:39:44;10.13;;;8.95;;
66087;SDS011;52872;52.994;6.940;2023-05-10T03:42:11;11.57;;;9.18;;
66087;SDS011;52872;52.994;6.940;2023-05-10T03:44:39;11.75;;;9.85;;
66087;SDS011;52872;52.994;6.940;2023-05-10T03:47:07;10.73;;;9.35;;
66087;SDS011;52872;52.994;6.940;2023-05-10T03:49:34;11.02;;;9.77;;
66087;SDS011;52872;52.994;6.940;2023-05-10T03:52:02;9.85;;;8.85;;
66087;SDS011;52872;52.994;6.940;2023-05-10T03:54:30;9.40;;;8.45;;
66087;SDS011;52872;52.994;6.940;2023-05-10T03:56:57;12.30;;;9.75;;
66087;SDS011;52872;52.994;6.940;2023-05-10T03:59:25;11.15;;;8.88;;
66087;SDS011;52872;52.994;6.940;2023-05-10T04:01:52;10.27;;;9.10;;
66087;SDS011;52872;52.994;6.940;2023-05-10T04:04:19;11.43;;;9.25;;
66087;SDS011;52872;52.994;6.940;2023-05-10T04:06:48;11.10;;;10.00;;
66087;SDS011;52872;52.994;6.940;2023-05-10T04:09:16;11.20;;;8.90;;
66087;SDS011;52872;52.994;6.940;2023-05-10T04:11:43;11.20;;;9.35;;
66087;SDS011;52872;52.994;6.940;2023-05-10T04:14:10;12.75;;;10.55;;
66087;SDS011;52872;52.994;6.940;2023-05-10T04:16:37;10.95;;;9.82;;
66087;SDS011;52872;52.994;6.940;2023-05-10T04:19:04;12.50;;;9.60;;
66087;SDS011;52872;52.994;6.940;2023-05-10T04:21:31;10.77;;;9.73;;
66087;SDS011;52872;52.994;6.940;2023-05-10T04:23:58;11.38;;;9.30;;
66087;SDS011;52872;52.994;6.940;2023-05-10T04:26:25;10.63;;;9.52;;
66087;SDS011;52872;52.994;6.940;2023-05-10T04:28:52;10.77;;;9.65;;
66087;SDS011;52872;52.994;6.940;2023-05-10T04:31:19;10.68;;;9.55;;
66087;SDS011;52872;52.994;6.940;2023-05-10T04:33:46;11.85;;;9.88;;
66087;SDS011;52872;52.994;6.940;2023-05-10T04:36:12;10.57;;;9.27;;
66087;SDS011;52872;52.994;6.940;2023-05-10T04:38:39;12.23;;;10.02;;
66087;SDS011;52872;52.994;6.940;2023-05-10T04:41:07;10.80;;;9.20;;
66087;SDS011;52872;52.994;6.940;2023-05-10T04:43:34;10.60;;;9.48;;
66087;SDS011;52872;52.994;6.940;2023-05-10T04:46:02;12.27;;;10.18;;
66087;SDS011;52872;52.994;6.940;2023-05-10T04:48:30;10.85;;;9.52;;
66087;SDS011;52872;52.994;6.940;2023-05-10T04:50:57;9.95;;;8.88;;
66087;SDS011;52872;52.994;6.940;2023-05-10T04:53:24;9.45;;;8.38;;
66087;SDS011;52872;52.994;6.940;2023-05-10T04:55:51;10.07;;;9.07;;
66087;SDS011;52872;52.994;6.940;2023-05-10T04:58:18;8.18;;;7.22;;
66087;SDS011;52872;52.994;6.940;2023-05-10T05:00:44;8.77;;;7.97;;
66087;SDS011;52872;52.994;6.940;2023-05-10T05:03:11;8.15;;;7.38;;
66087;SDS011;52872;52.994;6.940;2023-05-10T05:05:38;7.78;;;6.97;;
66087;SDS011;52872;52.994;6.940;2023-05-10T05:08:05;8.02;;;7.32;;
66087;SDS011;52872;52.994;6.940;2023-05-10T05:10:32;7.43;;;6.72;;
66087;SDS011;52872;52.994;6.940;2023-05-10T05:12:59;7.35;;;6.55;;
66087;SDS011;52872;52.994;6.940;2023-05-10T05:15:26;7.90;;;7.03;;
66087;SDS011;52872;52.994;6.940;2023-05-10T05:17:53;7.60;;;6.90;;
66087;SDS011;52872;52.994;6.940;2023-05-10T05:20:20;7.85;;;7.05;;
66087;SDS011;52872;52.994;6.940;2023-05-10T05:22:47;7.25;;;6.55;;
66087;SDS011;52872;52.994;6.940;2023-05-10T05:25:15;7.78;;;7.07;;
66087;SDS011;52872;52.994;6.940;2023-05-10T05:27:42;6.97;;;6.38;;
66087;SDS011;52872;52.994;6.940;2023-05-10T05:30:09;7.05;;;6.35;;
66087;SDS011;52872;52.994;6.940;2023-05-10T05:32:36;7.32;;;6.60;;
66087;SDS011;52872;52.994;6.940;2023-05-10T05:35:03;7.80;;;7.10;;
66087;SDS011;52872;52.994;6.940;2023-05-10T05:37:31;6.85;;;6.20;;
66087;SDS011;52872;52.994;6.940;2023-05-10T05:39:58;7.28;;;6.50;;
66087;SDS011;52872;52.994;6.940;2023-05-10T05:42:27;6.13;;;5.63;;
66087;SDS011;52872;52.994;6.940;2023-05-10T05:44:54;6.38;;;5.78;;
66087;SDS011;52872;52.994;6.940;2023-05-10T05:47:21;7.60;;;6.20;;
66087;SDS011;52872;52.994;6.940;2023-05-10T05:49:48;7.97;;;6.75;;
66087;SDS011;52872;52.994;6.940;2023-05-10T05:52:15;7.60;;;5.82;;
66087;SDS011;52872;52.994;6.940;2023-05-10T05:54:42;6.28;;;5.68;;
66087;SDS011;52872;52.994;6.940;2023-05-10T05:57:09;6.35;;;5.72;;
66087;SDS011;52872;52.994;6.940;2023-05-10T05:59:36;6.50;;;5.88;;
66087;SDS011;52872;52.994;6.940;2023-05-10T06:02:08;6.13;;;5.63;;
66087;SDS011;52872;52.994;6.940;2023-05-10T06:04:35;7.88;;;6.15;;
66087;SDS011;52872;52.994;6.940;2023-05-10T06:07:02;6.90;;;6.20;;
66087;SDS011;52872;52.994;6.940;2023-05-10T06:09:29;6.70;;;6.07;;
66087;SDS011;52872;52.994;6.940;2023-05-10T06:11:56;6.20;;;5.60;;
66087;SDS011;52872;52.994;6.940;2023-05-10T06:14:23;7.55;;;6.05;;
66087;SDS011;52872;52.994;6.940;2023-05-10T06:16:51;6.57;;;5.60;;
66087;SDS011;52872;52.994;6.940;2023-05-10T06:19:18;5.15;;;4.75;;
66087;SDS011;52872;52.994;6.940;2023-05-10T06:21:44;5.05;;;4.65;;
66087;SDS011;52872;52.994;6.940;2023-05-10T06:24:11;6.07;;;5.05;;
66087;SDS011;52872;52.994;6.940;2023-05-10T06:26:38;4.88;;;4.47;;
66087;SDS011;52872;52.994;6.940;2023-05-10T06:29:05;5.30;;;4.80;;
66087;SDS011;52872;52.994;6.940;2023-05-10T06:31:32;5.32;;;4.78;;
66087;SDS011;52872;52.994;6.940;2023-05-10T06:33:59;4.90;;;4.07;;
66087;SDS011;52872;52.994;6.940;2023-05-10T06:36:26;4.68;;;4.28;;
66087;SDS011;52872;52.994;6.940;2023-05-10T06:38:54;5.45;;;4.50;;
66087;SDS011;52872;52.994;6.940;2023-05-10T06:41:21;5.50;;;4.95;;
66087;SDS011;52872;52.994;6.940;2023-05-10T06:43:50;5.03;;;4.63;;
66087;SDS011;52872;52.994;6.940;2023-05-10T06:46:17;4.88;;;4.47;;
66087;SDS011;52872;52.994;6.940;2023-05-10T06:48:44;4.50;;;4.07;;
66087;SDS011;52872;52.994;6.940;2023-05-10T06:51:11;4.15;;;3.75;;
66087;SDS011;52872;52.994;6.940;2023-05-10T06:53:38;3.65;;;3.35;;
66087;SDS011;52872;52.994;6.940;2023-05-10T06:56:05;3.83;;;3.53;;
66087;SDS011;52872;52.994;6.940;2023-05-10T06:58:32;3.55;;;3.20;;
66087;SDS011;52872;52.994;6.940;2023-05-10T07:01:02;4.07;;;3.78;;
66087;SDS011;52872;52.994;6.940;2023-05-10T07:03:30;3.55;;;3.25;;
66087;SDS011;52872;52.994;6.940;2023-05-10T07:06:01;3.70;;;3.42;;
66087;SDS011;52872;52.994;6.940;2023-05-10T07:08:32;3.25;;;3.05;;
66087;SDS011;52872;52.994;6.940;2023-05-10T07:11:03;3.30;;;3.00;;
66087;SDS011;52872;52.994;6.940;2023-05-10T07:13:31;3.35;;;3.05;;
66087;SDS011;52872;52.994;6.940;2023-05-10T07:15:58;4.22;;;2.90;;
66087;SDS011;52872;52.994;6.940;2023-05-10T07:18:26;3.35;;;3.05;;
66087;SDS011;52872;52.994;6.940;2023-05-10T07:20:53;3.13;;;2.92;;
66087;SDS011;52872;52.994;6.940;2023-05-10T07:23:21;3.13;;;2.92;;
66087;SDS011;52872;52.994;6.940;2023-05-10T07:25:49;2.80;;;2.60;;
66087;SDS011;52872;52.994;6.940;2023-05-10T07:28:18;3.75;;;2.10;;
66087;SDS011;52872;52.994;6.940;2023-05-10T07:30:46;2.15;;;2.05;;
66087;SDS011;52872;52.994;6.940;2023-05-10T07:33:13;1.00;;;1.00;;
66087;SDS011;52872;52.994;6.940;2023-05-10T07:35:41;1.42;;;0.82;;
66087;SDS011;52872;52.994;6.940;2023-05-10T07:38:08;3.60;;;1.30;;
66087;SDS011;52872;52.994;6.940;2023-05-10T07:40:37;0.82;;;0.82;;
66087;SDS011;52872;52.994;6.940;2023-05-10T07:43:05;0.57;;;0.50;;
66087;SDS011;52872;52.994;6.940;2023-05-10T07:45:32;0.50;;;0.50;;
66087;SDS011;52872;52.994;6.940;2023-05-10T07:48:00;0.70;;;0.70;;
66087;SDS011;52872;52.994;6.940;2023-05-10T07:50:27;0.75;;;0.50;;
66087;SDS011;52872;52.994;6.940;2023-05-10T07:52:54;0.43;;;0.43;;
66087;SDS011;52872;52.994;6.940;2023-05-10T07:55:21;1.00;;;0.70;;
66087;SDS011;52872;52.994;6.940;2023-05-10T07:57:48;0.40;;;0.40;;
66087;SDS011;52872;52.994;6.940;2023-05-10T08:00:18;0.50;;;0.50;;
66087;SDS011;52872;52.994;6.940;2023-05-10T08:02:46;0.73;;;0.73;;
66087;SDS011;52872;52.994;6.940;2023-05-10T08:05:14;0.70;;;0.70;;
66087;SDS011;52872;52.994;6.940;2023-05-10T08:07:41;1.27;;;1.00;;
66087;SDS011;52872;52.994;6.940;2023-05-10T08:10:09;0.70;;;0.70;;
66087;SDS011;52872;52.994;6.940;2023-05-10T08:12:37;1.80;;;0.60;;
66087;SDS011;52872;52.994;6.940;2023-05-10T08:15:05;0.60;;;0.60;;
66087;SDS011;52872;52.994;6.940;2023-05-10T08:17:33;0.38;;;0.38;;
66087;SDS011;52872;52.994;6.940;2023-05-10T08:20:00;0.30;;;0.30;;
66087;SDS011;52872;52.994;6.940;2023-05-10T08:22:28;0.40;;;0.40;;
66087;SDS011;52872;52.994;6.940;2023-05-10T08:24:55;0.45;;;0.30;;
66087;SDS011;52872;52.994;6.940;2023-05-10T08:27:21;0.50;;;0.50;;
66087;SDS011;52872;52.994;6.940;2023-05-10T08:29:48;0.43;;;0.43;;
66087;SDS011;52872;52.994;6.940;2023-05-10T08:32:16;0.50;;;0.50;;
66087;SDS011;52872;52.994;6.940;2023-05-10T08:34:43;0.68;;;0.68;;
66087;SDS011;52872;52.994;6.940;2023-05-10T08:37:10;0.77;;;0.77;;
66087;SDS011;52872;52.994;6.940;2023-05-10T08:39:39;0.68;;;0.68;;
66087;SDS011;52872;52.994;6.940;2023-05-10T08:42:06;1.02;;;0.90;;
66087;SDS011;52872;52.994;6.940;2023-05-10T08:44:35;1.50;;;1.38;;
66087;SDS011;52872;52.994;6.940;2023-05-10T08:47:06;1.60;;;1.50;;
66087;SDS011;52872;52.994;6.940;2023-05-10T08:49:33;2.13;;;1.83;;
66087;SDS011;52872;52.994;6.940;2023-05-10T08:52:02;2.10;;;2.00;;
66087;SDS011;52872;52.994;6.940;2023-05-10T08:54:31;2.00;;;1.90;;
66087;SDS011;52872;52.994;6.940;2023-05-10T08:56:59;2.38;;;2.17;;
66087;SDS011;52872;52.994;6.940;2023-05-10T08:59:27;2.72;;;2.55;;
66087;SDS011;52872;52.994;6.940;2023-05-10T09:01:55;2.78;;;2.60;;
66087;SDS011;52872;52.994;6.940;2023-05-10T09:04:25;3.10;;;2.90;;
66087;SDS011;52872;52.994;6.940;2023-05-10T09:06:52;3.20;;;3.00;;
66087;SDS011;52872;52.994;6.940;2023-05-10T09:09:20;3.45;;;3.22;;
66087;SDS011;52872;52.994;6.940;2023-05-10T09:11:48;3.00;;;2.80;;
66087;SDS011;52872;52.994;6.940;2023-05-10T09:14:15;2.90;;;2.70;;
66087;SDS011;52872;52.994;6.940;2023-05-10T09:16:43;3.00;;;2.80;;
66087;SDS011;52872;52.994;6.940;2023-05-10T09:19:10;3.90;;;3.60;;
66087;SDS011;52872;52.994;6.940;2023-05-10T09:21:37;3.40;;;3.20;;
66087;SDS011;52872;52.994;6.940;2023-05-10T09:24:05;3.70;;;3.45;;
66087;SDS011;52872;52.994;6.940;2023-05-10T09:26:33;3.72;;;3.40;;
66087;SDS011;52872;52.994;6.940;2023-05-10T09:29:02;4.22;;;3.92;;
66087;SDS011;52872;52.994;6.940;2023-05-10T09:31:49;4.40;;;3.97;;
66087;SDS011;52872;52.994;6.940;2023-05-10T09:34:32;3.50;;;3.30;;
66087;SDS011;52872;52.994;6.940;2023-05-10T09:37:01;3.47;;;3.28;;
66087;SDS011;52872;52.994;6.940;2023-05-10T09:39:31;3.80;;;3.45;;
66087;SDS011;52872;52.994;6.940;2023-05-10T09:41:59;3.47;;;3.17;;
66087;SDS011;52872;52.994;6.940;2023-05-10T09:44:30;3.28;;;3.08;;
66087;SDS011;52872;52.994;6.940;2023-05-10T09:46:59;2.95;;;2.75;;
66087;SDS011;52872;52.994;6.940;2023-05-10T09:49:29;2.95;;;2.75;;
66087;SDS011;52872;52.994;6.940;2023-05-10T09:52:02;3.10;;;2.90;;
66087;SDS011;52872;52.994;6.940;2023-05-10T09:54:33;3.00;;;2.80;;
66087;SDS011;52872;52.994;6.940;2023-05-10T09:57:00;3.20;;;2.90;;
66087;SDS011;52872;52.994;6.940;2023-05-10T09:59:28;3.03;;;2.83;;
66087;SDS011;52872;52.994;6.940;2023-05-10T10:01:56;2.75;;;2.55;;
66087;SDS011;52872;52.994;6.940;2023-05-10T10:04:25;3.00;;;2.80;;
66087;SDS011;52872;52.994;6.940;2023-05-10T10:07:02;3.78;;;3.47;;
66087;SDS011;52872;52.994;6.940;2023-05-10T10:09:30;2.90;;;2.60;;
66087;SDS011;52872;52.994;6.940;2023-05-10T10:11:58;2.75;;;2.45;;
66087;SDS011;52872;52.994;6.940;2023-05-10T10:14:26;2.72;;;2.53;;
66087;SDS011;52872;52.994;6.940;2023-05-10T10:16:54;2.97;;;2.22;;
66087;SDS011;52872;52.994;6.940;2023-05-10T10:19:36;2.47;;;2.15;;
66087;SDS011;52872;52.994;6.940;2023-05-10T10:22:03;2.45;;;2.20;;
66087;SDS011;52872;52.994;6.940;2023-05-10T10:24:31;2.90;;;2.70;;
66087;SDS011;52872;52.994;6.940;2023-05-10T10:27:01;2.63;;;2.42;;
66087;SDS011;52872;52.994;6.940;2023-05-10T10:35:02;3.40;;;3.10;;
66087;SDS011;52872;52.994;6.940;2023-05-10T10:37:43;3.25;;;2.97;;
66087;SDS011;52872;52.994;6.940;2023-05-10T10:40:31;3.88;;;3.58;;
66087;SDS011;52872;52.994;6.940;2023-05-10T10:43:43;4.30;;;3.90;;
66087;SDS011;52872;52.994;6.940;2023-05-10T10:46:13;3.13;;;2.80;;
66087;SDS011;52872;52.994;6.940;2023-05-10T10:48:41;3.20;;;3.00;;
66087;SDS011;52872;52.994;6.940;2023-05-10T10:51:14;3.33;;;3.03;;
66087;SDS011;52872;52.994;6.940;2023-05-10T10:53:41;2.90;;;2.70;;
66087;SDS011;52872;52.994;6.940;2023-05-10T10:56:10;3.20;;;2.90;;
66087;SDS011;52872;52.994;6.940;2023-05-10T10:58:40;3.05;;;2.85;;
66087;SDS011;52872;52.994;6.940;2023-05-10T11:03:54;3.78;;;3.47;;
66087;SDS011;52872;52.994;6.940;2023-05-10T11:06:28;3.65;;;3.35;;
66087;SDS011;52872;52.994;6.940;2023-05-10T11:08:59;3.70;;;3.50;;
66087;SDS011;52872;52.994;6.940;2023-05-10T11:11:36;4.00;;;3.60;;
66087;SDS011;52872;52.994;6.940;2023-05-10T11:14:19;4.10;;;3.80;;
66087;SDS011;52872;52.994;6.940;2023-05-10T11:16:49;3.92;;;3.60;;
66087;SDS011;52872;52.994;6.940;2023-05-10T11:19:17;5.10;;;4.65;;
66087;SDS011;52872;52.994;6.940;2023-05-10T11:24:14;4.93;;;4.45;;
66087;SDS011;52872;52.994;6.940;2023-05-10T11:26:45;4.20;;;3.88;;
66087;SDS011;52872;52.994;6.940;2023-05-10T11:29:15;5.43;;;5.00;;
66087;SDS011;52872;52.994;6.940;2023-05-10T11:31:43;4.78;;;4.38;;
66087;SDS011;52872;52.994;6.940;2023-05-10T11:34:11;4.95;;;4.55;;
66087;SDS011;52872;52.994;6.940;2023-05-10T11:36:52;5.75;;;5.22;;
66087;SDS011;52872;52.994;6.940;2023-05-10T11:39:21;5.45;;;4.95;;
66087;SDS011;52872;52.994;6.940;2023-05-10T11:41:52;5.55;;;5.05;;
66087;SDS011;52872;52.994;6.940;2023-05-10T11:44:18;6.18;;;5.57;;
66087;SDS011;52872;52.994;6.940;2023-05-10T11:46:45;6.22;;;4.78;;
66087;SDS011;52872;52.994;6.940;2023-05-10T11:49:13;5.32;;;4.82;;
66087;SDS011;52872;52.994;6.940;2023-05-10T11:51:40;5.78;;;5.28;;
66087;SDS011;52872;52.994;6.940;2023-05-10T11:54:10;5.00;;;4.60;;
66087;SDS011;52872;52.994;6.940;2023-05-10T11:56:38;5.63;;;5.00;;
66087;SDS011;52872;52.994;6.940;2023-05-10T11:59:06;5.68;;;5.10;;
66087;SDS011;52872;52.994;6.940;2023-05-10T12:01:34;6.35;;;5.75;;
66087;SDS011;52872;52.994;6.940;2023-05-10T12:04:04;6.45;;;5.85;;
66087;SDS011;52872;52.994;6.940;2023-05-10T12:06:32;6.75;;;5.45;;
66087;SDS011;52872;52.994;6.940;2023-05-10T12:09:06;5.63;;;5.13;;
66087;SDS011;52872;52.994;6.940;2023-05-10T12:11:36;6.35;;;5.45;;
66087;SDS011;52872;52.994;6.940;2023-05-10T12:16:35;5.85;;;5.35;;
66087;SDS011;52872;52.994;6.940;2023-05-10T12:19:02;6.00;;;5.50;;
66087;SDS011;52872;52.994;6.940;2023-05-10T12:21:29;6.15;;;5.30;;
66087;SDS011;52872;52.994;6.940;2023-05-10T12:24:01;5.05;;;4.57;;
66087;SDS011;52872;52.994;6.940;2023-05-10T12:26:29;5.20;;;4.72;;
66087;SDS011;52872;52.994;6.940;2023-05-10T12:29:15;5.55;;;4.72;;
66087;SDS011;52872;52.994;6.940;2023-05-10T12:31:53;5.68;;;4.63;;
66087;SDS011;52872;52.994;6.940;2023-05-10T12:34:25;5.18;;;4.68;;
66087;SDS011;52872;52.994;6.940;2023-05-10T12:36:53;4.95;;;4.45;;
66087;SDS011;52872;52.994;6.940;2023-05-10T12:39:20;5.40;;;4.90;;
66087;SDS011;52872;52.994;6.940;2023-05-10T12:41:47;5.35;;;4.85;;
66087;SDS011;52872;52.994;6.940;2023-05-10T12:44:14;6.07;;;5.07;;
66087;SDS011;52872;52.994;6.940;2023-05-10T12:46:41;5.50;;;5.00;;
66087;SDS011;52872;52.994;6.940;2023-05-10T12:49:08;6.53;;;5.05;;
66087;SDS011;52872;52.994;6.940;2023-05-10T12:51:35;5.88;;;4.70;;
66087;SDS011;52872;52.994;6.940;2023-05-10T12:54:02;6.30;;;5.53;;
66087;SDS011;52872;52.994;6.940;2023-05-10T12:56:30;5.80;;;5.20;;
66087;SDS011;52872;52.994;6.940;2023-05-10T12:58:56;7.07;;;5.68;;
66087;SDS011;52872;52.994;6.940;2023-05-10T13:01:23;6.13;;;5.07;;
66087;SDS011;52872;52.994;6.940;2023-05-10T13:03:50;6.38;;;5.80;;
66087;SDS011;52872;52.994;6.940;2023-05-10T13:06:17;6.20;;;5.63;;
66087;SDS011;52872;52.994;6.940;2023-05-10T13:08:44;5.68;;;5.05;;
66087;SDS011;52872;52.994;6.940;2023-05-10T13:11:11;5.70;;;5.10;;
66087;SDS011;52872;52.994;6.940;2023-05-10T13:13:42;5.50;;;4.75;;
66087;SDS011;52872;52.994;6.940;2023-05-10T13:16:09;5.90;;;5.28;;
66087;SDS011;52872;52.994;6.940;2023-05-10T13:18:36;7.88;;;5.63;;
66087;SDS011;52872;52.994;6.940;2023-05-10T13:21:03;5.63;;;4.90;;
66087;SDS011;52872;52.994;6.940;2023-05-10T13:23:31;5.90;;;5.28;;
66087;SDS011;52872;52.994;6.940;2023-05-10T13:25:58;6.10;;;5.43;;
66087;SDS011;52872;52.994;6.940;2023-05-10T13:28:25;4.75;;;4.32;;
66087;SDS011;52872;52.994;6.940;2023-05-10T13:30:53;5.65;;;4.30;;
66087;SDS011;52872;52.994;6.940;2023-05-10T13:33:20;5.30;;;4.80;;
66087;SDS011;52872;52.994;6.940;2023-05-10T13:35:47;4.65;;;3.90;;
66087;SDS011;52872;52.994;6.940;2023-05-10T13:38:14;4.72;;;4.30;;
66087;SDS011;52872;52.994;6.940;2023-05-10T13:40:41;5.38;;;4.88;;
66087;SDS011;52872;52.994;6.940;2023-05-10T13:43:08;5.03;;;4.47;;
66087;SDS011;52872;52.994;6.940;2023-05-10T13:45:35;6.55;;;4.72;;
66087;SDS011;52872;52.994;6.940;2023-05-10T13:48:01;6.65;;;5.18;;
66087;SDS011;52872;52.994;6.940;2023-05-10T13:50:29;5.57;;;4.80;;
66087;SDS011;52872;52.994;6.940;2023-05-10T13:52:56;5.30;;;4.80;;
66087;SDS011;52872;52.994;6.940;2023-05-10T13:55:23;5.97;;;5.38;;
66087;SDS011;52872;52.994;6.940;2023-05-10T13:57:50;6.22;;;5.30;;
66087;SDS011;52872;52.994;6.940;2023-05-10T14:00:17;6.47;;;5.00;;
66087;SDS011;52872;52.994;6.940;2023-05-10T14:02:44;5.47;;;4.97;;
66087;SDS011;52872;52.994;6.940;2023-05-10T14:05:11;5.60;;;4.95;;
66087;SDS011;52872;52.994;6.940;2023-05-10T14:07:39;5.65;;;5.10;;
66087;SDS011;52872;52.994;6.940;2023-05-10T14:10:06;6.47;;;5.10;;
66087;SDS011;52872;52.994;6.940;2023-05-10T14:12:33;6.00;;;5.40;;
66087;SDS011;52872;52.994;6.940;2023-05-10T14:15:00;6.13;;;5.63;;
66087;SDS011;52872;52.994;6.940;2023-05-10T14:17:27;6.65;;;5.97;;
66087;SDS011;52872;52.994;6.940;2023-05-10T14:19:54;8.00;;;5.80;;
66087;SDS011;52872;52.994;6.940;2023-05-10T14:22:21;6.30;;;5.70;;
66087;SDS011;52872;52.994;6.940;2023-05-10T14:24:49;7.57;;;5.82;;
66087;SDS011;52872;52.994;6.940;2023-05-10T14:27:16;6.18;;;5.57;;
66087;SDS011;52872;52.994;6.940;2023-05-10T14:29:43;6.15;;;5.55;;
66087;SDS011;52872;52.994;6.940;2023-05-10T14:32:10;6.43;;;5.78;;
66087;SDS011;52872;52.994;6.940;2023-05-10T14:34:37;6.47;;;5.70;;
66087;SDS011;52872;52.994;6.940;2023-05-10T14:37:04;5.80;;;5.18;;
66087;SDS011;52872;52.994;6.940;2023-05-10T14:39:31;6.72;;;5.70;;
66087;SDS011;52872;52.994;6.940;2023-05-10T14:41:59;6.80;;;6.18;;
66087;SDS011;52872;52.994;6.940;2023-05-10T14:44:26;7.10;;;5.00;;
66087;SDS011;52872;52.994;6.940;2023-05-10T14:46:53;6.05;;;5.45;;
66087;SDS011;52872;52.994;6.940;2023-05-10T14:49:21;6.65;;;5.72;;
66087;SDS011;52872;52.994;6.940;2023-05-10T14:51:51;5.90;;;5.38;;
66087;SDS011;52872;52.994;6.940;2023-05-10T14:54:18;6.25;;;5.65;;
66087;SDS011;52872;52.994;6.940;2023-05-10T14:56:45;8.90;;;5.80;;
66087;SDS011;52872;52.994;6.940;2023-05-10T14:59:12;6.25;;;5.28;;
66087;SDS011;52872;52.994;6.940;2023-05-10T15:01:39;6.57;;;5.68;;
66087;SDS011;52872;52.994;6.940;2023-05-10T15:04:08;6.85;;;6.05;;
66087;SDS011;52872;52.994;6.940;2023-05-10T15:06:35;7.10;;;5.95;;
66087;SDS011;52872;52.994;6.940;2023-05-10T15:09:03;8.57;;;6.65;;
66087;SDS011;52872;52.994;6.940;2023-05-10T15:11:30;6.50;;;5.88;;
66087;SDS011;52872;52.994;6.940;2023-05-10T15:13:57;6.50;;;5.68;;
66087;SDS011;52872;52.994;6.940;2023-05-10T15:16:24;6.43;;;5.80;;
66087;SDS011;52872;52.994;6.940;2023-05-10T15:18:51;7.88;;;5.95;;
66087;SDS011;52872;52.994;6.940;2023-05-10T15:21:18;7.07;;;6.40;;
66087;SDS011;52872;52.994;6.940;2023-05-10T15:23:45;7.25;;;6.00;;
66087;SDS011;52872;52.994;6.940;2023-05-10T15:26:12;7.10;;;5.93;;